sensor_id;sensor_type;location;lat;lon;timestamp;P1;durP1;ratioP1;P2;durP2;ratioP2
48361;SDS011;34510;51.888;5.670;2023-06-22T00:00:02;1123.53;;;999.90;;
48361;SDS011;34510;51.888;5.670;2023-06-22T00:05:12;1097.32;;;995.88;;
48361;SDS011;34510;51.888;5.670;2023-06-22T00:10:14;1102.97;;;998.83;;
48361;SDS011;34510;51.888;5.670;2023-06-22T00:15:16;1091.03;;;991.30;;
48361;SDS011;34510;51.888;5.670;2023-06-22T00:20:19;1092.97;;;992.88;;
48361;SDS011;34510;51.888;5.670;2023-06-22T00:25:21;1104.25;;;998.80;;
48361;SDS011;34510;51.888;5.670;2023-06-22T00:30:23;1087.57;;;987.83;;
48361;SDS011;34510;51.888;5.670;2023-06-22T00:35:25;1092.28;;;992.08;;
48361;SDS011;34510;51.888;5.670;2023-06-22T00:40:31;1090.32;;;990.15;;
48361;SDS011;34510;51.888;5.670;2023-06-22T00:45:34;1093.43;;;993.42;;
48361;SDS011;34510;51.888;5.670;2023-06-22T00:50:36;1086.57;;;986.85;;
48361;SDS011;34510;51.888;5.670;2023-06-22T00:55:40;1081.90;;;982.33;;
48361;SDS011;34510;51.888;5.670;2023-06-22T01:00:48;1081.85;;;982.40;;
48361;SDS011;34510;51.888;5.670;2023-06-22T01:05:51;1077.30;;;977.95;;
48361;SDS011;34510;51.888;5.670;2023-06-22T01:21:34;1076.30;;;976.97;;
48361;SDS011;34510;51.888;5.670;2023-06-22T01:26:43;1063.30;;;965.15;;
48361;SDS011;34510;51.888;5.670;2023-06-22T01:31:50;1100.93;;;998.47;;
48361;SDS011;34510;51.888;5.670;2023-06-22T01:36:54;1070.45;;;971.17;;
48361;SDS011;34510;51.888;5.670;2023-06-22T01:41:56;1077.75;;;978.40;;
48361;SDS011;34510;51.888;5.670;2023-06-22T01:46:59;1080.97;;;981.55;;
48361;SDS011;34510;51.888;5.670;2023-06-22T01:52:01;1086.05;;;986.10;;
48361;SDS011;34510;51.888;5.670;2023-06-22T01:57:03;1075.82;;;976.67;;
48361;SDS011;34510;51.888;5.670;2023-06-22T02:02:09;1064.38;;;966.00;;
48361;SDS011;34510;51.888;5.670;2023-06-22T02:07:13;1051.07;;;953.47;;
48361;SDS011;34510;51.888;5.670;2023-06-22T02:12:22;1054.13;;;956.22;;
48361;SDS011;34510;51.888;5.670;2023-06-22T02:17:26;1057.88;;;959.42;;
48361;SDS011;34510;51.888;5.670;2023-06-22T02:22:28;1056.57;;;958.42;;
48361;SDS011;34510;51.888;5.670;2023-06-22T02:27:31;1055.20;;;957.25;;
48361;SDS011;34510;51.888;5.670;2023-06-22T02:32:33;1059.45;;;960.95;;
48361;SDS011;34510;51.888;5.670;2023-06-22T02:37:37;1048.85;;;950.92;;
48361;SDS011;34510;51.888;5.670;2023-06-22T02:42:43;1045.78;;;948.22;;
48361;SDS011;34510;51.888;5.670;2023-06-22T02:47:45;1052.15;;;953.88;;
48361;SDS011;34510;51.888;5.670;2023-06-22T02:52:47;1057.18;;;958.72;;
48361;SDS011;34510;51.888;5.670;2023-06-22T02:57:49;1057.63;;;959.17;;
48361;SDS011;34510;51.888;5.670;2023-06-22T03:02:54;1053.00;;;954.53;;
48361;SDS011;34510;51.888;5.670;2023-06-22T03:07:56;1053.10;;;954.72;;
48361;SDS011;34510;51.888;5.670;2023-06-22T03:12:59;1042.75;;;943.67;;
48361;SDS011;34510;51.888;5.670;2023-06-22T03:18:01;1023.90;;;925.78;;
48361;SDS011;34510;51.888;5.670;2023-06-22T03:23:03;1035.35;;;936.97;;
48361;SDS011;34510;51.888;5.670;2023-06-22T03:28:07;1036.93;;;938.25;;
48361;SDS011;34510;51.888;5.670;2023-06-22T03:33:09;1020.22;;;922.30;;
48361;SDS011;34510;51.888;5.670;2023-06-22T03:38:11;1035.93;;;937.22;;
48361;SDS011;34510;51.888;5.670;2023-06-22T03:43:13;1026.35;;;928.28;;
48361;SDS011;34510;51.888;5.670;2023-06-22T03:48:15;1027.40;;;929.55;;
48361;SDS011;34510;51.888;5.670;2023-06-22T03:53:17;1017.35;;;919.80;;
48361;SDS011;34510;51.888;5.670;2023-06-22T03:58:20;1017.63;;;919.72;;
48361;SDS011;34510;51.888;5.670;2023-06-22T04:03:22;1031.60;;;932.90;;
48361;SDS011;34510;51.888;5.670;2023-06-22T04:08:24;1024.25;;;925.90;;
48361;SDS011;34510;51.888;5.670;2023-06-22T04:13:26;1024.68;;;926.10;;
48361;SDS011;34510;51.888;5.670;2023-06-22T04:18:28;1027.30;;;928.88;;
48361;SDS011;34510;51.888;5.670;2023-06-22T04:23:30;1023.60;;;925.38;;
48361;SDS011;34510;51.888;5.670;2023-06-22T04:28:32;1024.88;;;926.05;;
48361;SDS011;34510;51.888;5.670;2023-06-22T04:33:36;1037.25;;;938.28;;
48361;SDS011;34510;51.888;5.670;2023-06-22T04:38:42;1025.85;;;927.50;;
48361;SDS011;34510;51.888;5.670;2023-06-22T04:43:45;1030.80;;;932.30;;
48361;SDS011;34510;51.888;5.670;2023-06-22T04:48:57;1028.53;;;930.22;;
48361;SDS011;34510;51.888;5.670;2023-06-22T04:53:59;1040.32;;;941.20;;
48361;SDS011;34510;51.888;5.670;2023-06-22T04:59:02;1038.97;;;939.97;;
48361;SDS011;34510;51.888;5.670;2023-06-22T05:04:04;1050.90;;;951.47;;
48361;SDS011;34510;51.888;5.670;2023-06-22T05:09:08;1056.55;;;957.00;;
48361;SDS011;34510;51.888;5.670;2023-06-22T05:14:10;1066.20;;;965.90;;
48361;SDS011;34510;51.888;5.670;2023-06-22T05:19:12;1061.38;;;961.13;;
48361;SDS011;34510;51.888;5.670;2023-06-22T05:24:14;1071.10;;;970.75;;
48361;SDS011;34510;51.888;5.670;2023-06-22T05:29:16;1080.35;;;979.25;;
48361;SDS011;34510;51.888;5.670;2023-06-22T05:34:18;1085.47;;;983.78;;
48361;SDS011;34510;51.888;5.670;2023-06-22T05:39:20;1100.72;;;997.05;;
48361;SDS011;34510;51.888;5.670;2023-06-22T05:44:22;1090.80;;;989.35;;
48361;SDS011;34510;51.888;5.670;2023-06-22T05:49:25;1091.22;;;989.10;;
48361;SDS011;34510;51.888;5.670;2023-06-22T05:54:31;1115.40;;;999.90;;
48361;SDS011;34510;51.888;5.670;2023-06-22T05:59:33;1124.65;;;999.90;;
48361;SDS011;34510;51.888;5.670;2023-06-22T06:04:35;1125.32;;;999.90;;
48361;SDS011;34510;51.888;5.670;2023-06-22T06:09:37;1123.85;;;999.90;;
48361;SDS011;34510;51.888;5.670;2023-06-22T06:14:39;1128.60;;;999.90;;
48361;SDS011;34510;51.888;5.670;2023-06-22T06:19:41;1139.20;;;999.90;;
48361;SDS011;34510;51.888;5.670;2023-06-22T06:24:43;1144.53;;;999.90;;
48361;SDS011;34510;51.888;5.670;2023-06-22T06:29:45;1147.95;;;999.90;;
48361;SDS011;34510;51.888;5.670;2023-06-22T06:34:49;1158.88;;;999.90;;
48361;SDS011;34510;51.888;5.670;2023-06-22T06:39:51;1157.70;;;999.90;;
48361;SDS011;34510;51.888;5.670;2023-06-22T06:44:53;1165.97;;;999.90;;
48361;SDS011;34510;51.888;5.670;2023-06-22T06:49:56;1177.82;;;999.90;;
48361;SDS011;34510;51.888;5.670;2023-06-22T06:54:59;1169.07;;;999.90;;
48361;SDS011;34510;51.888;5.670;2023-06-22T07:00:01;1175.95;;;999.90;;
48361;SDS011;34510;51.888;5.670;2023-06-22T07:05:03;1183.57;;;999.90;;
48361;SDS011;34510;51.888;5.670;2023-06-22T07:10:06;1187.75;;;999.90;;
48361;SDS011;34510;51.888;5.670;2023-06-22T07:15:08;1182.22;;;999.90;;
48361;SDS011;34510;51.888;5.670;2023-06-22T07:20:11;1186.07;;;999.90;;
48361;SDS011;34510;51.888;5.670;2023-06-22T07:25:14;1194.28;;;999.90;;
48361;SDS011;34510;51.888;5.670;2023-06-22T07:30:17;1197.35;;;999.90;;
48361;SDS011;34510;51.888;5.670;2023-06-22T07:35:19;1188.80;;;999.90;;
48361;SDS011;34510;51.888;5.670;2023-06-22T07:40:21;1194.05;;;999.90;;
48361;SDS011;34510;51.888;5.670;2023-06-22T07:45:23;1210.07;;;999.90;;
48361;SDS011;34510;51.888;5.670;2023-06-22T07:50:25;1205.03;;;999.90;;
48361;SDS011;34510;51.888;5.670;2023-06-22T07:55:27;1204.68;;;999.90;;
48361;SDS011;34510;51.888;5.670;2023-06-22T08:00:30;1219.38;;;999.90;;
48361;SDS011;34510;51.888;5.670;2023-06-22T08:05:32;1213.10;;;999.90;;
48361;SDS011;34510;51.888;5.670;2023-06-22T08:10:34;1225.53;;;999.90;;
48361;SDS011;34510;51.888;5.670;2023-06-22T08:15:37;1216.05;;;999.90;;
48361;SDS011;34510;51.888;5.670;2023-06-22T08:20:39;1231.53;;;999.90;;
48361;SDS011;34510;51.888;5.670;2023-06-22T08:25:41;1232.32;;;999.90;;
48361;SDS011;34510;51.888;5.670;2023-06-22T08:30:43;1234.15;;;999.90;;
48361;SDS011;34510;51.888;5.670;2023-06-22T08:35:45;1232.15;;;999.90;;
48361;SDS011;34510;51.888;5.670;2023-06-22T08:40:47;1247.82;;;999.90;;
48361;SDS011;34510;51.888;5.670;2023-06-22T08:45:49;1236.95;;;999.90;;
48361;SDS011;34510;51.888;5.670;2023-06-22T08:50:51;1239.38;;;999.90;;
48361;SDS011;34510;51.888;5.670;2023-06-22T08:55:53;1239.75;;;999.90;;
48361;SDS011;34510;51.888;5.670;2023-06-22T09:00:55;1245.00;;;999.90;;
48361;SDS011;34510;51.888;5.670;2023-06-22T09:05:57;1253.40;;;999.90;;
48361;SDS011;34510;51.888;5.670;2023-06-22T09:10:59;1247.90;;;999.90;;
48361;SDS011;34510;51.888;5.670;2023-06-22T09:16:01;1249.43;;;999.90;;
48361;SDS011;34510;51.888;5.670;2023-06-22T09:21:04;1250.90;;;999.90;;
48361;SDS011;34510;51.888;5.670;2023-06-22T09:26:05;1247.25;;;999.90;;
48361;SDS011;34510;51.888;5.670;2023-06-22T09:31:08;1242.40;;;999.90;;
48361;SDS011;34510;51.888;5.670;2023-06-22T09:36:10;1250.43;;;999.90;;
48361;SDS011;34510;51.888;5.670;2023-06-22T09:41:11;1252.65;;;999.90;;
48361;SDS011;34510;51.888;5.670;2023-06-22T09:46:17;1244.05;;;999.90;;
48361;SDS011;34510;51.888;5.670;2023-06-22T09:51:19;1234.30;;;999.90;;
48361;SDS011;34510;51.888;5.670;2023-06-22T09:56:23;1238.00;;;999.90;;
48361;SDS011;34510;51.888;5.670;2023-06-22T10:01:27;1234.88;;;999.90;;
48361;SDS011;34510;51.888;5.670;2023-06-22T10:06:29;1225.47;;;999.90;;
48361;SDS011;34510;51.888;5.670;2023-06-22T10:11:32;1229.22;;;999.90;;
48361;SDS011;34510;51.888;5.670;2023-06-22T10:16:36;1232.38;;;999.90;;
48361;SDS011;34510;51.888;5.670;2023-06-22T10:21:38;1231.82;;;999.90;;
48361;SDS011;34510;51.888;5.670;2023-06-22T10:26:40;1227.90;;;999.90;;
48361;SDS011;34510;51.888;5.670;2023-06-22T10:31:42;1230.70;;;999.90;;
48361;SDS011;34510;51.888;5.670;2023-06-22T10:36:44;1229.40;;;999.90;;
48361;SDS011;34510;51.888;5.670;2023-06-22T10:41:50;1231.87;;;999.90;;
48361;SDS011;34510;51.888;5.670;2023-06-22T10:46:52;1232.40;;;999.90;;
48361;SDS011;34510;51.888;5.670;2023-06-22T10:51:54;1237.00;;;999.90;;
48361;SDS011;34510;51.888;5.670;2023-06-22T10:56:56;1217.25;;;999.90;;
48361;SDS011;34510;51.888;5.670;2023-06-22T11:01:58;1220.63;;;999.90;;
48361;SDS011;34510;51.888;5.670;2023-06-22T11:07:00;1219.40;;;999.90;;
48361;SDS011;34510;51.888;5.670;2023-06-22T11:12:03;1225.75;;;999.90;;
48361;SDS011;34510;51.888;5.670;2023-06-22T11:17:05;1217.13;;;999.90;;
48361;SDS011;34510;51.888;5.670;2023-06-22T11:22:07;1225.95;;;999.90;;
48361;SDS011;34510;51.888;5.670;2023-06-22T11:27:09;1216.70;;;999.90;;
48361;SDS011;34510;51.888;5.670;2023-06-22T11:32:11;1222.75;;;999.90;;
48361;SDS011;34510;51.888;5.670;2023-06-22T11:37:15;1208.80;;;999.90;;
48361;SDS011;34510;51.888;5.670;2023-06-22T11:42:17;1214.18;;;999.90;;
48361;SDS011;34510;51.888;5.670;2023-06-22T11:47:19;1209.63;;;999.90;;
48361;SDS011;34510;51.888;5.670;2023-06-22T11:52:21;1213.85;;;999.90;;
48361;SDS011;34510;51.888;5.670;2023-06-22T11:57:23;1209.28;;;999.90;;
48361;SDS011;34510;51.888;5.670;2023-06-22T12:02:25;1207.80;;;999.90;;
48361;SDS011;34510;51.888;5.670;2023-06-22T12:07:27;1197.93;;;999.90;;
48361;SDS011;34510;51.888;5.670;2023-06-22T12:12:29;1191.82;;;999.90;;
48361;SDS011;34510;51.888;5.670;2023-06-22T12:17:31;1184.75;;;999.90;;
48361;SDS011;34510;51.888;5.670;2023-06-22T12:22:34;1186.47;;;999.90;;
48361;SDS011;34510;51.888;5.670;2023-06-22T12:27:36;1184.68;;;999.90;;
48361;SDS011;34510;51.888;5.670;2023-06-22T12:32:38;1177.45;;;999.90;;
48361;SDS011;34510;51.888;5.670;2023-06-22T12:37:41;1171.13;;;999.90;;
48361;SDS011;34510;51.888;5.670;2023-06-22T12:42:44;1179.20;;;999.90;;
48361;SDS011;34510;51.888;5.670;2023-06-22T12:47:48;1173.60;;;999.90;;
48361;SDS011;34510;51.888;5.670;2023-06-22T12:52:51;1168.60;;;999.90;;
48361;SDS011;34510;51.888;5.670;2023-06-22T12:57:54;1159.45;;;999.90;;
48361;SDS011;34510;51.888;5.670;2023-06-22T13:02:55;1163.90;;;999.90;;
48361;SDS011;34510;51.888;5.670;2023-06-22T13:07:58;1153.93;;;999.90;;
48361;SDS011;34510;51.888;5.670;2023-06-22T13:13:00;1158.90;;;999.90;;
48361;SDS011;34510;51.888;5.670;2023-06-22T13:18:02;1156.90;;;999.90;;
48361;SDS011;34510;51.888;5.670;2023-06-22T13:23:04;1144.93;;;999.90;;
48361;SDS011;34510;51.888;5.670;2023-06-22T13:28:06;1143.68;;;999.90;;
48361;SDS011;34510;51.888;5.670;2023-06-22T13:33:24;1137.30;;;999.90;;
48361;SDS011;34510;51.888;5.670;2023-06-22T13:38:26;1137.97;;;999.90;;
48361;SDS011;34510;51.888;5.670;2023-06-22T13:43:28;1129.45;;;999.90;;
48361;SDS011;34510;51.888;5.670;2023-06-22T13:48:30;1132.57;;;999.90;;
48361;SDS011;34510;51.888;5.670;2023-06-22T13:53:32;1136.75;;;999.90;;
48361;SDS011;34510;51.888;5.670;2023-06-22T13:58:34;1132.05;;;999.90;;
48361;SDS011;34510;51.888;5.670;2023-06-22T14:03:36;1132.72;;;999.90;;
48361;SDS011;34510;51.888;5.670;2023-06-22T14:08:39;1135.60;;;999.90;;
48361;SDS011;34510;51.888;5.670;2023-06-22T14:13:42;1115.63;;;999.90;;
48361;SDS011;34510;51.888;5.670;2023-06-22T14:18:45;1128.78;;;999.90;;
48361;SDS011;34510;51.888;5.670;2023-06-22T14:23:47;1131.32;;;999.90;;
48361;SDS011;34510;51.888;5.670;2023-06-22T14:28:51;1120.63;;;999.90;;
48361;SDS011;34510;51.888;5.670;2023-06-22T14:33:54;1110.38;;;999.90;;
48361;SDS011;34510;51.888;5.670;2023-06-22T14:38:56;1115.93;;;999.90;;
48361;SDS011;34510;51.888;5.670;2023-06-22T14:43:58;1103.97;;;997.88;;
48361;SDS011;34510;51.888;5.670;2023-06-22T14:49:00;1102.60;;;997.80;;
48361;SDS011;34510;51.888;5.670;2023-06-22T14:54:02;1106.72;;;999.10;;
48361;SDS011;34510;51.888;5.670;2023-06-22T14:59:04;1095.20;;;992.72;;
48361;SDS011;34510;51.888;5.670;2023-06-22T15:04:06;1102.63;;;997.42;;
48361;SDS011;34510;51.888;5.670;2023-06-22T15:09:08;1091.63;;;989.10;;
48361;SDS011;34510;51.888;5.670;2023-06-22T15:14:10;1082.90;;;981.05;;
48361;SDS011;34510;51.888;5.670;2023-06-22T15:19:15;1070.88;;;969.88;;
48361;SDS011;34510;51.888;5.670;2023-06-22T15:24:17;1071.15;;;970.13;;
48361;SDS011;34510;51.888;5.670;2023-06-22T15:29:19;1061.70;;;961.35;;
48361;SDS011;34510;51.888;5.670;2023-06-22T15:34:21;1059.63;;;959.05;;
48361;SDS011;34510;51.888;5.670;2023-06-22T15:39:23;1084.18;;;982.10;;
48361;SDS011;34510;51.888;5.670;2023-06-22T15:44:26;1090.00;;;987.45;;
48361;SDS011;34510;51.888;5.670;2023-06-22T15:49:28;1076.38;;;975.30;;
48361;SDS011;34510;51.888;5.670;2023-06-22T15:54:30;1070.95;;;970.17;;
48361;SDS011;34510;51.888;5.670;2023-06-22T15:59:32;1074.25;;;972.83;;
48361;SDS011;34510;51.888;5.670;2023-06-22T16:04:34;1071.78;;;970.92;;
48361;SDS011;34510;51.888;5.670;2023-06-22T16:09:37;1070.82;;;970.35;;
48361;SDS011;34510;51.888;5.670;2023-06-22T16:14:39;1079.30;;;978.25;;
48361;SDS011;34510;51.888;5.670;2023-06-22T16:19:43;1081.88;;;980.40;;
48361;SDS011;34510;51.888;5.670;2023-06-22T16:24:45;1068.97;;;968.33;;
48361;SDS011;34510;51.888;5.670;2023-06-22T16:29:48;1077.70;;;976.35;;
48361;SDS011;34510;51.888;5.670;2023-06-22T16:34:51;1078.22;;;977.15;;
48361;SDS011;34510;51.888;5.670;2023-06-22T16:39:53;1083.95;;;982.88;;
48361;SDS011;34510;51.888;5.670;2023-06-22T16:44:55;1081.32;;;980.22;;
48361;SDS011;34510;51.888;5.670;2023-06-22T16:49:57;1079.43;;;978.58;;
48361;SDS011;34510;51.888;5.670;2023-06-22T16:54:59;1078.90;;;977.63;;
48361;SDS011;34510;51.888;5.670;2023-06-22T17:00:05;1073.20;;;972.85;;
48361;SDS011;34510;51.888;5.670;2023-06-22T17:05:11;1079.67;;;978.77;;
48361;SDS011;34510;51.888;5.670;2023-06-22T17:10:13;1076.30;;;975.13;;
48361;SDS011;34510;51.888;5.670;2023-06-22T17:15:15;1071.40;;;971.00;;
48361;SDS011;34510;51.888;5.670;2023-06-22T17:20:17;1077.40;;;976.70;;
48361;SDS011;34510;51.888;5.670;2023-06-22T17:25:19;1077.03;;;976.40;;
48361;SDS011;34510;51.888;5.670;2023-06-22T17:30:23;1071.95;;;971.42;;
48361;SDS011;34510;51.888;5.670;2023-06-22T17:35:26;1070.43;;;970.28;;
48361;SDS011;34510;51.888;5.670;2023-06-22T17:40:28;1067.57;;;967.53;;
48361;SDS011;34510;51.888;5.670;2023-06-22T17:45:39;1075.60;;;974.75;;
48361;SDS011;34510;51.888;5.670;2023-06-22T17:50:42;1071.85;;;971.53;;
48361;SDS011;34510;51.888;5.670;2023-06-22T17:55:44;1067.97;;;968.05;;
48361;SDS011;34510;51.888;5.670;2023-06-22T18:00:47;1061.15;;;961.47;;
48361;SDS011;34510;51.888;5.670;2023-06-22T18:05:49;1069.82;;;969.83;;
48361;SDS011;34510;51.888;5.670;2023-06-22T18:10:51;1070.90;;;970.67;;
48361;SDS011;34510;51.888;5.670;2023-06-22T18:15:55;1072.10;;;971.92;;
48361;SDS011;34510;51.888;5.670;2023-06-22T18:20:59;1054.32;;;955.47;;
48361;SDS011;34510;51.888;5.670;2023-06-22T18:26:04;1065.25;;;965.80;;
48361;SDS011;34510;51.888;5.670;2023-06-22T18:31:07;1057.93;;;958.75;;
48361;SDS011;34510;51.888;5.670;2023-06-22T18:36:10;1056.20;;;957.05;;
48361;SDS011;34510;51.888;5.670;2023-06-22T18:41:21;1053.80;;;954.83;;
48361;SDS011;34510;51.888;5.670;2023-06-22T18:46:35;1056.38;;;956.85;;
48361;SDS011;34510;51.888;5.670;2023-06-22T18:51:57;1057.93;;;958.22;;
48361;SDS011;34510;51.888;5.670;2023-06-22T18:57:24;1054.03;;;954.45;;
48361;SDS011;34510;51.888;5.670;2023-06-22T19:07:59;1047.68;;;948.65;;
48361;SDS011;34510;51.888;5.670;2023-06-22T19:13:26;1048.70;;;949.42;;
48361;SDS011;34510;51.888;5.670;2023-06-22T19:18:35;1061.78;;;961.60;;
48361;SDS011;34510;51.888;5.670;2023-06-22T19:23:43;1048.93;;;949.50;;
48361;SDS011;34510;51.888;5.670;2023-06-22T19:28:46;1050.90;;;951.53;;
48361;SDS011;34510;51.888;5.670;2023-06-22T19:34:02;1038.30;;;939.17;;
48361;SDS011;34510;51.888;5.670;2023-06-22T19:39:08;1050.65;;;951.17;;
48361;SDS011;34510;51.888;5.670;2023-06-22T19:44:10;1056.75;;;957.15;;
48361;SDS011;34510;51.888;5.670;2023-06-22T19:49:14;1030.55;;;932.30;;
48361;SDS011;34510;51.888;5.670;2023-06-22T19:54:17;1031.68;;;933.30;;
48361;SDS011;34510;51.888;5.670;2023-06-22T19:59:19;1037.47;;;938.75;;
48361;SDS011;34510;51.888;5.670;2023-06-22T20:04:24;1034.53;;;935.97;;
48361;SDS011;34510;51.888;5.670;2023-06-22T20:09:26;1033.28;;;935.03;;
48361;SDS011;34510;51.888;5.670;2023-06-22T20:14:32;1030.45;;;932.45;;
48361;SDS011;34510;51.888;5.670;2023-06-22T20:24:42;1024.23;;;926.57;;
48361;SDS011;34510;51.888;5.670;2023-06-22T20:29:44;1027.65;;;929.80;;
48361;SDS011;34510;51.888;5.670;2023-06-22T20:34:46;1028.07;;;930.05;;
48361;SDS011;34510;51.888;5.670;2023-06-22T20:39:49;1015.70;;;918.65;;
48361;SDS011;34510;51.888;5.670;2023-06-22T20:44:53;1018.08;;;921.15;;
48361;SDS011;34510;51.888;5.670;2023-06-22T20:49:54;1028.72;;;930.65;;
48361;SDS011;34510;51.888;5.670;2023-06-22T20:55:00;1019.95;;;922.78;;
48361;SDS011;34510;51.888;5.670;2023-06-22T21:00:02;1020.40;;;923.05;;
48361;SDS011;34510;51.888;5.670;2023-06-22T21:05:08;1026.35;;;928.47;;
48361;SDS011;34510;51.888;5.670;2023-06-22T21:10:10;1013.17;;;916.40;;
48361;SDS011;34510;51.888;5.670;2023-06-22T21:15:12;1017.20;;;920.10;;
48361;SDS011;34510;51.888;5.670;2023-06-22T21:20:14;1014.55;;;917.53;;
48361;SDS011;34510;51.888;5.670;2023-06-22T21:25:16;1023.53;;;925.88;;
48361;SDS011;34510;51.888;5.670;2023-06-22T21:30:18;1022.15;;;925.03;;
48361;SDS011;34510;51.888;5.670;2023-06-22T21:35:20;1009.10;;;912.72;;
48361;SDS011;34510;51.888;5.670;2023-06-22T21:40:22;1005.83;;;909.38;;
48361;SDS011;34510;51.888;5.670;2023-06-22T21:45:24;1009.17;;;912.47;;
48361;SDS011;34510;51.888;5.670;2023-06-22T21:50:26;1012.67;;;915.28;;
48361;SDS011;34510;51.888;5.670;2023-06-22T21:55:28;1005.25;;;909.05;;
48361;SDS011;34510;51.888;5.670;2023-06-22T22:00:30;1000.67;;;904.25;;
48361;SDS011;34510;51.888;5.670;2023-06-22T22:05:32;991.72;;;895.70;;
48361;SDS011;34510;51.888;5.670;2023-06-22T22:10:34;991.33;;;895.15;;
48361;SDS011;34510;51.888;5.670;2023-06-22T22:15:38;1005.88;;;909.15;;
48361;SDS011;34510;51.888;5.670;2023-06-22T22:20:40;1003.97;;;906.88;;
48361;SDS011;34510;51.888;5.670;2023-06-22T22:25:43;1003.70;;;906.65;;
48361;SDS011;34510;51.888;5.670;2023-06-22T22:30:44;998.78;;;902.15;;
48361;SDS011;34510;51.888;5.670;2023-06-22T22:35:47;996.28;;;899.63;;
48361;SDS011;34510;51.888;5.670;2023-06-22T22:40:49;990.22;;;893.75;;
48361;SDS011;34510;51.888;5.670;2023-06-22T22:45:51;988.95;;;892.75;;
48361;SDS011;34510;51.888;5.670;2023-06-22T22:50:53;993.20;;;896.70;;
48361;SDS011;34510;51.888;5.670;2023-06-22T22:55:55;994.17;;;897.75;;
48361;SDS011;34510;51.888;5.670;2023-06-22T23:00:57;1011.17;;;913.85;;
48361;SDS011;34510;51.888;5.670;2023-06-22T23:06:00;979.80;;;884.42;;
48361;SDS011;34510;51.888;5.670;2023-06-22T23:11:02;994.00;;;898.20;;
48361;SDS011;34510;51.888;5.670;2023-06-22T23:16:04;991.25;;;895.47;;
48361;SDS011;34510;51.888;5.670;2023-06-22T23:21:06;992.92;;;896.75;;
48361;SDS011;34510;51.888;5.670;2023-06-22T23:26:09;988.72;;;892.92;;
48361;SDS011;34510;51.888;5.670;2023-06-22T23:31:11;989.00;;;893.22;;
48361;SDS011;34510;51.888;5.670;2023-06-22T23:36:14;980.50;;;885.10;;
48361;SDS011;34510;51.888;5.670;2023-06-22T23:41:16;988.63;;;892.85;;
48361;SDS011;34510;51.888;5.670;2023-06-22T23:46:19;976.33;;;880.88;;
48361;SDS011;34510;51.888;5.670;2023-06-22T23:51:21;983.55;;;888.00;;
48361;SDS011;34510;51.888;5.670;2023-06-22T23:56:23;989.42;;;893.22;;
